createdAt,value
2022-11-13T00:00:25.421Z,98.80
2022-11-13T00:03:30.439Z,98.70
2022-11-13T00:06:34.784Z,98.70
2022-11-13T00:09:39.463Z,99.10
2022-11-13T00:12:44.464Z,99.00
2022-11-13T00:16:03.925Z,98.70
2022-11-13T00:19:08.509Z,99.10
2022-11-13T00:22:13.245Z,99.00
2022-11-13T00:25:18.098Z,99.00
2022-11-13T00:28:23.026Z,99.00
2022-11-13T00:31:29.269Z,98.90
2022-11-13T00:34:47.272Z,98.60
2022-11-13T00:37:54.377Z,98.90
2022-11-13T00:40:59.473Z,98.90
2022-11-13T00:44:04.103Z,98.80
2022-11-13T00:47:08.670Z,98.40
2022-11-13T00:50:13.752Z,98.60
2022-11-13T00:53:18.621Z,99.10
2022-11-13T00:56:23.873Z,99.20
2022-11-13T00:59:28.617Z,99.00
2022-11-13T01:02:33.329Z,98.90
2022-11-13T01:05:43.980Z,98.70
2022-11-13T01:08:50.011Z,99.00
2022-11-13T01:11:54.994Z,98.70
2022-11-13T01:15:00.037Z,98.20
2022-11-13T01:18:04.922Z,98.40
2022-11-13T01:21:13.334Z,99.10
2022-11-13T01:24:18.622Z,98.70
2022-11-13T01:27:23.226Z,98.90
2022-11-13T01:30:28.200Z,98.70
2022-11-13T01:33:32.957Z,99.10
2022-11-13T01:36:37.866Z,98.90
2022-11-13T01:39:42.855Z,98.80
2022-11-13T01:42:47.756Z,98.40
2022-11-13T01:45:58.834Z,98.60
2022-11-13T01:49:09.748Z,98.40
2022-11-13T01:52:28.450Z,98.70
2022-11-13T01:55:33.507Z,98.30
2022-11-13T01:58:40.364Z,98.70
2022-11-13T02:01:45.218Z,98.40
2022-11-13T02:04:50.553Z,99.00
2022-11-13T02:07:55.350Z,98.40
2022-11-13T02:11:00.505Z,98.50
2022-11-13T02:14:06.510Z,98.60
2022-11-13T02:17:42.261Z,98.80
2022-11-13T02:21:11.197Z,98.90
2022-11-13T02:24:21.659Z,98.60
2022-11-13T02:27:41.392Z,98.40
2022-11-13T02:30:46.582Z,98.10
2022-11-13T02:33:51.384Z,98.00
2022-11-13T02:36:56.434Z,98.60
2022-11-13T02:40:01.466Z,98.80
2022-11-13T02:43:05.834Z,98.90
2022-11-13T02:46:10.929Z,98.40
2022-11-13T02:49:15.866Z,98.80
2022-11-13T02:52:21.011Z,98.70
2022-11-13T02:55:26.044Z,98.30
2022-11-13T02:58:31.226Z,98.70
2022-11-13T03:01:36.553Z,98.70
2022-11-13T03:05:10.388Z,98.30
2022-11-13T03:08:06.762Z,98.20
2022-11-13T03:11:12.586Z,98.80
2022-11-13T03:14:17.519Z,98.80
2022-11-13T03:17:22.422Z,98.70
2022-11-13T03:20:27.493Z,99.00
2022-11-13T03:23:32.431Z,98.60
2022-11-13T03:26:37.417Z,98.50
2022-11-13T03:29:42.373Z,98.20
2022-11-13T03:32:47.235Z,98.30
2022-11-13T03:35:52.407Z,98.30
2022-11-13T03:38:57.554Z,97.90
2022-11-13T03:42:02.294Z,98.30
2022-11-13T03:45:07.524Z,98.20
2022-11-13T03:48:12.823Z,98.50
2022-11-13T03:51:17.404Z,98.30
2022-11-13T03:54:22.284Z,98.30
2022-11-13T03:57:27.501Z,98.70
2022-11-13T04:00:33.332Z,98.90
2022-11-13T04:03:37.977Z,98.50
2022-11-13T04:06:43.043Z,98.70
2022-11-13T04:09:47.649Z,98.60
2022-11-13T04:12:52.689Z,98.50
2022-11-13T04:15:57.603Z,98.00
2022-11-13T04:19:02.489Z,98.10
2022-11-13T04:22:07.661Z,98.40
2022-11-13T04:25:12.304Z,98.20
2022-11-13T04:28:17.141Z,98.40
2022-11-13T04:31:22.456Z,98.10
2022-11-13T04:34:27.498Z,98.20
2022-11-13T04:37:32.612Z,98.00
2022-11-13T04:40:37.661Z,98.00
2022-11-13T04:43:42.546Z,97.40
2022-11-13T04:46:47.300Z,97.80
2022-11-13T04:49:52.258Z,97.90
2022-11-13T04:52:57.195Z,98.00
2022-11-13T04:56:02.185Z,98.10
2022-11-13T04:59:07.268Z,98.10
2022-11-13T05:02:12.299Z,98.10
2022-11-13T05:05:17.428Z,98.00
2022-11-13T05:08:22.135Z,98.40
2022-11-13T05:11:26.917Z,98.10
2022-11-13T05:14:31.921Z,97.80
2022-11-13T05:17:36.802Z,98.50
2022-11-13T05:20:41.842Z,98.20
2022-11-13T05:23:46.710Z,98.40
2022-11-13T05:26:52.157Z,98.00
2022-11-13T05:29:57.006Z,98.10
2022-11-13T05:33:01.926Z,98.00
2022-11-13T05:36:12.716Z,98.00
2022-11-13T05:39:17.454Z,98.20
2022-11-13T05:42:22.516Z,98.20
2022-11-13T05:45:27.529Z,98.30
2022-11-13T05:48:33.483Z,98.50
2022-11-13T05:51:38.071Z,98.30
2022-11-13T05:54:43.145Z,98.30
2022-11-13T05:57:48.228Z,98.40
2022-11-13T06:00:53.394Z,98.30
2022-11-13T06:04:00.101Z,98.20
2022-11-13T06:07:04.891Z,98.10
2022-11-13T06:10:09.982Z,98.50
2022-11-13T06:13:14.647Z,98.40
2022-11-13T06:16:22.783Z,98.40
2022-11-13T06:19:27.282Z,98.10
2022-11-13T06:22:32.134Z,98.00
2022-11-13T06:25:37.139Z,97.80
2022-11-13T06:28:42.292Z,97.90
2022-11-13T06:31:47.179Z,98.00
2022-11-13T06:34:51.975Z,98.10
2022-11-13T06:37:56.762Z,98.40
2022-11-13T06:41:02.420Z,97.80
2022-11-13T06:44:07.213Z,97.80
2022-11-13T06:47:12.192Z,98.40
2022-11-13T06:50:17.366Z,98.10
2022-11-13T06:53:22.290Z,98.60
2022-11-13T06:56:27.104Z,98.40
2022-11-13T06:59:32.003Z,98.40
2022-11-13T07:02:37.031Z,97.80
2022-11-13T07:05:42.352Z,97.80
2022-11-13T07:08:47.866Z,98.00
2022-11-13T07:11:52.472Z,97.90
2022-11-13T07:14:57.532Z,97.60
2022-11-13T07:18:03.987Z,97.50
2022-11-13T07:21:11.236Z,97.00
2022-11-13T07:24:17.211Z,97.40
2022-11-13T07:27:21.845Z,97.50
2022-11-13T07:30:26.923Z,97.50
2022-11-13T07:33:32.301Z,97.70
2022-11-13T07:36:36.902Z,97.60
2022-11-13T07:39:41.664Z,97.80
2022-11-13T07:42:46.499Z,97.40
2022-11-13T07:45:54.711Z,97.20
2022-11-13T07:48:59.731Z,97.10
2022-11-13T07:52:05.044Z,96.70
2022-11-13T07:55:09.860Z,97.00
2022-11-13T07:58:15.244Z,97.20
2022-11-13T08:01:20.140Z,97.00
2022-11-13T08:04:25.004Z,97.20
2022-11-13T08:07:30.040Z,97.60
2022-11-13T08:10:36.304Z,97.40
2022-11-13T08:13:40.929Z,97.80
2022-11-13T08:16:45.920Z,98.00
2022-11-13T08:19:50.716Z,98.20
2022-11-13T08:23:00.129Z,98.30
2022-11-13T08:26:06.375Z,98.20
2022-11-13T08:29:11.158Z,98.10
2022-11-13T08:32:17.516Z,97.80
2022-11-13T08:35:28.142Z,97.60
2022-11-13T08:38:34.142Z,97.80
2022-11-13T08:41:38.788Z,97.60
2022-11-13T08:44:43.998Z,97.30
2022-11-13T08:47:49.970Z,97.00
2022-11-13T08:50:56.548Z,96.20
2022-11-13T08:54:01.487Z,96.40
2022-11-13T08:57:06.393Z,96.40
2022-11-13T09:00:12.133Z,96.60
2022-11-13T09:03:16.612Z,96.80
2022-11-13T09:06:21.343Z,96.70
2022-11-13T09:09:26.415Z,97.30
2022-11-13T09:12:31.350Z,97.00
2022-11-13T09:15:38.948Z,96.90
2022-11-13T09:18:44.085Z,96.30
2022-11-13T09:21:49.128Z,96.80
2022-11-13T09:24:53.719Z,96.80
2022-11-13T09:28:00.491Z,97.10
2022-11-13T09:31:06.652Z,97.20
2022-11-13T09:34:11.607Z,97.20
2022-11-13T09:37:16.765Z,97.00
2022-11-13T09:40:29.476Z,96.70
2022-11-13T09:43:43.892Z,96.90
2022-11-13T09:47:03.832Z,96.60
2022-11-13T09:50:20.289Z,96.80
2022-11-13T09:53:27.429Z,96.70
2022-11-13T09:56:59.538Z,96.40
2022-11-13T10:00:14.280Z,96.50
2022-11-13T10:04:00.588Z,96.50
2022-11-13T10:07:45.985Z,96.50
2022-11-13T10:11:08.981Z,96.50
2022-11-13T10:14:36.864Z,96.30
2022-11-13T10:17:44.417Z,95.70
2022-11-13T10:20:49.301Z,95.40
2022-11-13T10:23:56.826Z,94.90
2022-11-13T10:27:02.167Z,95.00
2022-11-13T10:30:17.216Z,95.40
2022-11-13T10:33:23.590Z,95.60
2022-11-13T10:36:34.399Z,95.50
2022-11-13T10:39:45.497Z,96.20
2022-11-13T10:42:50.495Z,95.60
2022-11-13T10:46:00.654Z,95.70
2022-11-13T10:49:34.795Z,95.70
2022-11-13T10:52:48.211Z,95.70
2022-11-13T10:55:57.601Z,95.80
2022-11-13T10:59:14.797Z,95.70
2022-11-13T11:02:25.122Z,95.90
2022-11-13T11:05:30.315Z,96.10
2022-11-13T11:08:35.957Z,96.30
2022-11-13T11:11:59.389Z,96.00
2022-11-13T11:15:36.385Z,95.40
2022-11-13T11:19:04.493Z,95.00
2022-11-13T11:22:16.850Z,94.70
2022-11-13T11:25:43.693Z,95.10
2022-11-13T11:29:10.147Z,95.00
2022-11-13T11:32:29.667Z,95.00
2022-11-13T11:35:44.353Z,95.00
2022-11-13T11:39:02.769Z,94.70
2022-11-13T11:42:25.817Z,94.60
2022-11-13T11:45:35.348Z,95.20
2022-11-13T11:48:40.828Z,95.30
2022-11-13T11:52:26.035Z,95.20
2022-11-13T11:56:00.131Z,94.80
2022-11-13T11:59:04.845Z,94.40
2022-11-13T12:02:27.014Z,93.50
2022-11-13T12:05:50.256Z,92.70
2022-11-13T12:09:32.733Z,92.00
2022-11-13T12:13:09.624Z,91.50
2022-11-13T12:16:28.819Z,88.50
2022-11-13T12:19:53.585Z,84.40
2022-11-13T12:23:15.639Z,81.50
2022-11-13T12:26:41.102Z,78.60
2022-11-13T12:30:00.971Z,78.50
2022-11-13T12:33:14.058Z,79.00
2022-11-13T12:36:20.772Z,78.20
2022-11-13T12:39:34.352Z,78.40
2022-11-13T12:42:48.893Z,79.00
2022-11-13T12:46:08.172Z,80.50
2022-11-13T12:49:24.839Z,80.90
2022-11-13T12:52:30.166Z,79.40
2022-11-13T12:55:37.672Z,79.70
2022-11-13T12:59:15.559Z,79.70
2022-11-13T13:02:37.594Z,79.20
2022-11-13T13:06:04.767Z,80.00
2022-11-13T13:09:42.058Z,77.70
2022-11-13T13:12:56.381Z,76.80
2022-11-13T13:16:04.700Z,75.60
2022-11-13T13:19:28.859Z,73.80
2022-11-13T13:22:35.960Z,74.50
2022-11-13T13:25:41.200Z,73.80
2022-11-13T13:28:53.354Z,73.80
2022-11-13T13:32:20.620Z,73.30
2022-11-13T13:35:46.341Z,72.20
2022-11-13T13:39:23.247Z,72.00
2022-11-13T13:43:00.437Z,69.50
2022-11-13T13:46:15.391Z,66.10
2022-11-13T13:49:22.798Z,64.60
2022-11-13T13:52:31.985Z,63.70
2022-11-13T13:55:43.688Z,62.30
2022-11-13T13:58:49.158Z,61.00
2022-11-13T14:01:58.348Z,58.90
2022-11-13T14:05:03.204Z,58.00
2022-11-13T14:08:20.218Z,57.90
2022-11-13T14:11:29.913Z,57.20
2022-11-13T14:14:35.203Z,56.80
2022-11-13T14:17:39.989Z,57.50
2022-11-13T14:20:54.555Z,56.80
2022-11-13T14:24:01.490Z,55.30
2022-11-13T14:27:09.413Z,55.80
2022-11-13T14:30:29.048Z,55.10
2022-11-13T14:33:46.928Z,56.80
2022-11-13T14:36:51.750Z,60.00
2022-11-13T14:40:00.721Z,63.30
2022-11-13T14:43:10.268Z,66.00
2022-11-13T14:46:38.917Z,68.20
2022-11-13T14:49:43.794Z,69.70
2022-11-13T14:53:04.529Z,70.90
2022-11-13T14:56:11.848Z,72.60
2022-11-13T14:59:25.212Z,74.20
2022-11-13T15:02:30.212Z,75.60
2022-11-13T15:05:35.139Z,77.20
2022-11-13T15:08:39.861Z,79.00
2022-11-13T15:11:44.799Z,80.10
2022-11-13T15:14:49.585Z,80.40
2022-11-13T15:17:55.368Z,80.70
2022-11-13T15:21:00.532Z,81.30
2022-11-13T15:24:05.842Z,82.40
2022-11-13T15:27:15.645Z,83.30
2022-11-13T15:30:21.653Z,84.60
2022-11-13T15:33:27.499Z,86.00
2022-11-13T15:36:32.741Z,87.20
2022-11-13T15:39:37.568Z,87.90
2022-11-13T15:42:43.752Z,88.60
2022-11-13T15:45:48.334Z,89.50
2022-11-13T15:48:53.510Z,90.20
2022-11-13T15:51:58.692Z,90.40
2022-11-13T15:55:06.702Z,90.50
2022-11-13T15:58:18.394Z,91.00
2022-11-13T16:01:23.376Z,91.10
2022-11-13T16:04:44.009Z,91.30
2022-11-13T16:07:54.373Z,91.70
2022-11-13T16:10:59.339Z,91.90
2022-11-13T16:14:04.704Z,92.00
2022-11-13T16:17:21.630Z,92.00
2022-11-13T16:20:26.452Z,92.30
2022-11-13T16:23:31.541Z,92.30
2022-11-13T16:26:36.580Z,91.80
2022-11-13T16:29:41.210Z,91.90
2022-11-13T16:32:47.129Z,91.90
2022-11-13T16:35:51.593Z,92.20
2022-11-13T16:38:56.595Z,92.40
2022-11-13T16:42:01.929Z,93.10
2022-11-13T16:45:07.490Z,92.80
2022-11-13T16:48:16.029Z,92.80
2022-11-13T16:51:21.088Z,92.70
2022-11-13T16:54:25.818Z,92.60
2022-11-13T16:57:30.633Z,92.90
2022-11-13T17:00:35.951Z,93.00
2022-11-13T17:03:40.992Z,93.00
2022-11-13T17:06:45.847Z,93.10
2022-11-13T17:10:09.986Z,92.90
2022-11-13T17:13:15.563Z,93.00
2022-11-13T17:16:21.763Z,93.30
2022-11-13T17:19:27.020Z,93.10
2022-11-13T17:22:32.108Z,93.60
2022-11-13T17:25:36.923Z,93.70
2022-11-13T17:28:41.909Z,93.50
2022-11-13T17:31:46.800Z,93.90
2022-11-13T17:34:51.637Z,93.50
2022-11-13T17:37:56.637Z,93.50
2022-11-13T17:41:12.732Z,92.90
2022-11-13T17:44:17.673Z,93.10
2022-11-13T17:47:22.830Z,94.00
2022-11-13T17:50:27.834Z,95.00
2022-11-13T17:53:33.898Z,95.60
2022-11-13T17:56:38.588Z,95.70
2022-11-13T17:59:43.221Z,95.40
2022-11-13T18:02:48.357Z,95.00
2022-11-13T18:05:53.402Z,95.50
2022-11-13T18:08:58.433Z,96.30
2022-11-13T18:12:03.529Z,96.90
2022-11-13T18:15:08.856Z,97.10
2022-11-13T18:18:13.713Z,96.90
2022-11-13T18:21:23.451Z,97.10
2022-11-13T18:24:28.797Z,97.20
2022-11-13T18:27:33.519Z,97.00
2022-11-13T18:30:39.514Z,97.10
2022-11-13T18:33:44.793Z,97.00
2022-11-13T18:36:49.764Z,96.90
2022-11-13T18:39:54.386Z,96.50
2022-11-13T18:42:59.139Z,96.40
2022-11-13T18:46:06.468Z,96.30
2022-11-13T18:49:11.063Z,96.70
2022-11-13T18:52:15.844Z,96.90
2022-11-13T18:55:20.758Z,97.10
2022-11-13T18:58:26.289Z,97.30
2022-11-13T19:01:33.762Z,96.70
2022-11-13T19:04:38.837Z,96.60
2022-11-13T19:07:43.911Z,96.70
2022-11-13T19:10:48.517Z,96.50
2022-11-13T19:13:54.137Z,96.50
2022-11-13T19:16:58.837Z,96.90
2022-11-13T19:20:04.196Z,97.10
2022-11-13T19:23:09.525Z,96.90
2022-11-13T19:26:14.721Z,97.30
2022-11-13T19:29:20.295Z,97.60
2022-11-13T19:32:25.176Z,97.70
2022-11-13T19:35:30.177Z,97.70
2022-11-13T19:38:35.922Z,97.90
2022-11-13T19:41:40.804Z,98.10
2022-11-13T19:44:45.675Z,98.50
2022-11-13T19:47:50.510Z,98.80
2022-11-13T19:50:55.127Z,99.00
2022-11-13T19:54:00.196Z,99.20
2022-11-13T19:57:05.071Z,99.40
2022-11-13T20:00:10.763Z,99.60
2022-11-13T20:03:15.861Z,99.70
2022-11-13T20:06:20.994Z,99.90
2022-11-13T20:09:25.773Z,99.80
2022-11-13T20:12:31.375Z,99.60
2022-11-13T20:15:36.213Z,99.60
2022-11-13T20:18:42.227Z,99.60
2022-11-13T20:21:46.848Z,99.90
2022-11-13T20:24:51.702Z,99.90
2022-11-13T20:27:56.800Z,99.90
2022-11-13T20:31:22.326Z,99.90
2022-11-13T20:34:27.242Z,99.90
2022-11-13T20:37:32.441Z,99.90
2022-11-13T20:40:37.293Z,99.90
2022-11-13T20:43:42.211Z,99.90
2022-11-13T20:46:47.278Z,99.90
2022-11-13T20:49:51.965Z,99.90
2022-11-13T20:52:56.914Z,99.90
2022-11-13T20:56:02.204Z,99.90
2022-11-13T20:59:07.530Z,99.90
2022-11-13T21:02:13.626Z,99.90
2022-11-13T21:05:18.345Z,99.90
2022-11-13T21:08:23.429Z,99.90
2022-11-13T21:11:29.528Z,99.90
2022-11-13T21:14:34.177Z,99.90
2022-11-13T21:17:39.527Z,99.90
2022-11-13T21:20:44.413Z,99.90
2022-11-13T21:23:49.224Z,99.90
2022-11-13T21:26:54.261Z,99.90
2022-11-13T21:29:59.128Z,99.90
2022-11-13T21:33:03.869Z,99.90
2022-11-13T21:36:28.932Z,99.90
2022-11-13T21:39:34.638Z,99.90
2022-11-13T21:42:39.185Z,99.90
2022-11-13T21:45:43.796Z,99.90
2022-11-13T21:48:49.980Z,99.90
2022-11-13T21:51:54.554Z,99.90
2022-11-13T21:54:59.818Z,99.90
2022-11-13T21:58:04.575Z,99.90
2022-11-13T22:01:11.104Z,99.90
2022-11-13T22:04:15.640Z,99.90
2022-11-13T22:07:20.724Z,99.90
2022-11-13T22:10:25.640Z,99.90
2022-11-13T22:13:31.165Z,99.90
2022-11-13T22:16:38.845Z,99.90
2022-11-13T22:19:43.571Z,99.90
2022-11-13T22:22:48.512Z,99.90
2022-11-13T22:25:58.420Z,99.90
2022-11-13T22:29:03.492Z,99.90
2022-11-13T22:32:08.536Z,99.90
2022-11-13T22:35:13.389Z,99.90
2022-11-13T22:38:18.116Z,99.90
2022-11-13T22:41:29.349Z,99.90
2022-11-13T22:44:54.431Z,99.90
2022-11-13T22:47:59.194Z,99.90
2022-11-13T22:51:06.675Z,99.90
2022-11-13T22:54:12.908Z,99.90
2022-11-13T22:57:17.893Z,99.90
2022-11-13T23:00:22.756Z,99.90
2022-11-13T23:03:27.796Z,99.90
2022-11-13T23:06:33.980Z,99.90
2022-11-13T23:09:38.522Z,99.90
2022-11-13T23:12:43.129Z,99.80
2022-11-13T23:15:48.185Z,99.20
2022-11-13T23:18:54.781Z,99.10
2022-11-13T23:21:59.637Z,99.00
2022-11-13T23:25:04.774Z,98.90
2022-11-13T23:28:10.162Z,99.20
2022-11-13T23:31:15.362Z,99.90
2022-11-13T23:34:38.326Z,99.90
2022-11-13T23:37:45.009Z,99.90
2022-11-13T23:40:54.648Z,99.90
2022-11-13T23:44:08.942Z,99.90
2022-11-13T23:47:14.347Z,99.90
2022-11-13T23:50:19.443Z,99.90
2022-11-13T23:53:24.257Z,99.90
2022-11-13T23:56:28.980Z,99.90
2022-11-13T23:59:33.830Z,99.90
